createdAt,value
2018-05-25T00:00:56.884Z,7.30
2018-05-25T00:03:23.098Z,7.50
2018-05-25T00:05:49.309Z,7.27
2018-05-25T00:08:15.527Z,6.57
2018-05-25T00:10:41.714Z,6.50
2018-05-25T00:13:07.962Z,6.57
2018-05-25T00:15:34.201Z,6.73
2018-05-25T00:18:01.145Z,6.07
2018-05-25T00:20:27.469Z,6.07
2018-05-25T00:22:53.693Z,6.07
2018-05-25T00:25:19.925Z,6.00
2018-05-25T00:27:46.151Z,6.13
2018-05-25T00:30:12.385Z,7.70
2018-05-25T00:32:38.632Z,7.00
2018-05-25T00:35:04.875Z,7.37
2018-05-25T00:37:31.111Z,7.67
2018-05-25T00:39:57.337Z,7.47
2018-05-25T00:42:23.558Z,8.07
2018-05-25T00:44:50.540Z,7.10
2018-05-25T00:47:16.763Z,7.60
2018-05-25T00:49:43.846Z,6.70
2018-05-25T00:52:10.084Z,7.40
2018-05-25T00:54:36.303Z,7.23
2018-05-25T00:57:03.273Z,7.57
2018-05-25T00:59:29.488Z,7.70
2018-05-25T01:01:55.741Z,8.10
2018-05-25T01:04:22.681Z,7.90
2018-05-25T01:06:48.916Z,8.90
2018-05-25T01:09:15.153Z,7.97
2018-05-25T01:11:41.365Z,8.40
2018-05-25T01:14:07.710Z,8.60
2018-05-25T01:16:33.960Z,7.70
2018-05-25T01:19:00.176Z,8.83
2018-05-25T01:21:26.466Z,8.40
2018-05-25T01:23:52.690Z,8.83
2018-05-25T01:26:18.963Z,8.53
2018-05-25T01:28:45.922Z,8.67
2018-05-25T01:31:12.865Z,8.20
2018-05-25T01:33:39.090Z,9.37
2018-05-25T01:36:05.292Z,7.77
2018-05-25T01:38:31.559Z,9.00
2018-05-25T01:40:57.774Z,8.37
2018-05-25T01:43:24.027Z,8.60
2018-05-25T01:45:50.260Z,8.10
2018-05-25T01:48:17.227Z,9.20
2018-05-25T01:50:43.492Z,8.37
2018-05-25T01:53:09.704Z,9.30
2018-05-25T01:55:35.930Z,8.60
2018-05-25T01:58:02.196Z,7.70
2018-05-25T02:00:28.416Z,7.97
2018-05-25T02:02:54.648Z,7.80
2018-05-25T02:05:20.884Z,7.90
2018-05-25T02:07:47.090Z,8.30
2018-05-25T02:10:13.314Z,8.70
2018-05-25T02:12:39.568Z,8.03
2018-05-25T02:15:05.822Z,7.80
2018-05-25T02:17:32.776Z,8.60
2018-05-25T02:19:58.997Z,7.90
2018-05-25T02:22:25.203Z,7.33
2018-05-25T02:24:51.434Z,8.93
2018-05-25T02:27:17.652Z,8.30
2018-05-25T02:29:44.613Z,8.10
2018-05-25T02:32:10.850Z,8.87
2018-05-25T02:34:37.077Z,7.80
2018-05-25T02:37:03.320Z,7.90
2018-05-25T02:39:30.296Z,8.97
2018-05-25T02:41:56.520Z,8.10
2018-05-25T02:44:23.493Z,9.77
2018-05-25T02:46:50.443Z,9.97
2018-05-25T02:49:17.566Z,8.03
2018-05-25T02:51:43.788Z,9.30
2018-05-25T02:54:10.004Z,8.30
2018-05-25T02:56:36.258Z,7.43
2018-05-25T02:59:02.569Z,8.07
2018-05-25T03:01:28.955Z,9.33
2018-05-25T03:03:55.172Z,8.43
2018-05-25T03:06:21.386Z,7.87
2018-05-25T03:08:48.369Z,8.57
2018-05-25T03:11:14.592Z,7.10
2018-05-25T03:13:40.833Z,7.50
2018-05-25T03:16:07.072Z,8.40
2018-05-25T03:18:34.031Z,7.27
2018-05-25T03:21:00.345Z,9.13
2018-05-25T03:23:26.628Z,8.13
2018-05-25T03:25:52.857Z,8.13
2018-05-25T03:28:19.076Z,7.20
2018-05-25T03:30:45.303Z,7.17
2018-05-25T03:33:11.520Z,8.60
2018-05-25T03:35:37.738Z,7.23
2018-05-25T03:38:03.986Z,7.53
2018-05-25T03:40:30.232Z,7.80
2018-05-25T03:42:56.466Z,7.47
2018-05-25T03:45:22.694Z,8.70
2018-05-25T03:47:48.913Z,9.10
2018-05-25T03:50:15.173Z,8.70
2018-05-25T03:52:41.395Z,9.90
2018-05-25T03:55:07.622Z,7.90
2018-05-25T03:57:33.846Z,7.37
2018-05-25T04:00:12.234Z,8.37
2018-05-25T04:02:39.540Z,6.50
2018-05-25T04:05:05.778Z,7.57
2018-05-25T04:07:32.014Z,7.83
2018-05-25T04:09:58.245Z,6.97
2018-05-25T04:12:24.482Z,8.00
2018-05-25T04:14:50.862Z,8.70
2018-05-25T04:17:17.096Z,8.23
2018-05-25T04:19:43.618Z,7.93
2018-05-25T04:22:09.846Z,8.60
2018-05-25T04:24:36.076Z,8.23
2018-05-25T04:27:02.326Z,7.50
2018-05-25T04:29:28.549Z,8.63
2018-05-25T04:31:54.792Z,7.63
2018-05-25T04:34:21.040Z,8.87
2018-05-25T04:36:47.275Z,7.10
2018-05-25T04:39:13.510Z,7.27
2018-05-25T04:41:39.746Z,8.53
2018-05-25T04:44:05.976Z,8.50
2018-05-25T04:46:32.238Z,6.90
2018-05-25T04:48:58.450Z,7.60
2018-05-25T04:51:25.402Z,7.20
2018-05-25T04:53:52.370Z,8.00
2018-05-25T04:56:18.591Z,6.90
2018-05-25T04:58:45.549Z,6.50
2018-05-25T05:01:12.512Z,6.90
2018-05-25T05:03:38.752Z,7.03
2018-05-25T05:06:05.740Z,7.63
2018-05-25T05:08:31.959Z,7.03
2018-05-25T05:10:58.952Z,6.37
2018-05-25T05:13:25.163Z,6.93
2018-05-25T05:15:52.129Z,7.27
2018-05-25T05:18:18.520Z,7.40
2018-05-25T05:20:44.853Z,5.73
2018-05-25T05:23:11.082Z,5.83
2018-05-25T05:25:37.319Z,6.33
2018-05-25T05:28:03.573Z,5.80
2018-05-25T05:30:29.829Z,6.67
2018-05-25T05:32:56.053Z,5.40
2018-05-25T05:35:22.269Z,5.10
2018-05-25T05:37:48.522Z,5.87
2018-05-25T05:40:14.737Z,5.30
2018-05-25T05:42:40.974Z,5.97
2018-05-25T05:45:07.193Z,4.90
2018-05-25T05:47:34.196Z,6.03
2018-05-25T05:50:00.447Z,5.07
2018-05-25T05:52:26.677Z,4.80
2018-05-25T05:54:52.929Z,4.60
2018-05-25T05:57:19.204Z,4.37
2018-05-25T05:59:45.431Z,4.20
2018-05-25T06:02:11.665Z,4.60
2018-05-25T06:04:37.863Z,4.13
2018-05-25T06:07:04.134Z,4.20
2018-05-25T06:09:30.350Z,4.23
2018-05-25T06:11:56.578Z,3.67
2018-05-25T06:14:23.879Z,4.73
2018-05-25T06:16:50.683Z,4.60
2018-05-25T06:19:17.800Z,4.13
2018-05-25T06:21:44.022Z,4.47
2018-05-25T06:24:10.224Z,4.50
2018-05-25T06:26:37.202Z,3.93
2018-05-25T06:29:04.166Z,4.07
2018-05-25T06:31:30.404Z,3.50
2018-05-25T06:33:56.642Z,4.13
2018-05-25T06:36:22.958Z,3.47
2018-05-25T06:38:49.967Z,3.50
2018-05-25T06:41:16.338Z,3.57
2018-05-25T06:43:42.582Z,4.10
2018-05-25T06:46:08.800Z,4.10
2018-05-25T06:48:35.078Z,3.60
2018-05-25T06:51:02.422Z,4.00
2018-05-25T06:53:28.839Z,4.30
2018-05-25T06:55:55.564Z,4.97
2018-05-25T06:58:22.823Z,4.27
2018-05-25T07:00:49.242Z,4.00
2018-05-25T07:03:15.693Z,3.90
2018-05-25T07:05:42.082Z,4.20
2018-05-25T07:08:08.312Z,3.80
2018-05-25T07:10:34.528Z,4.00
2018-05-25T07:13:01.503Z,4.57
2018-05-25T07:15:27.723Z,4.00
2018-05-25T07:17:54.697Z,3.87
2018-05-25T07:20:21.689Z,4.00
2018-05-25T07:22:47.931Z,4.70
2018-05-25T07:25:14.143Z,4.03
2018-05-25T07:27:40.392Z,4.83
2018-05-25T07:30:06.635Z,4.17
2018-05-25T07:32:32.850Z,4.70
2018-05-25T07:34:59.451Z,4.63
2018-05-25T07:37:25.706Z,5.80
2018-05-25T07:39:51.949Z,5.17
2018-05-25T07:42:18.163Z,4.53
2018-05-25T07:44:44.369Z,5.87
2018-05-25T07:47:10.609Z,4.47
2018-05-25T07:49:37.580Z,5.00
2018-05-25T07:52:03.837Z,4.37
2018-05-25T07:54:30.062Z,4.17
2018-05-25T07:56:56.271Z,4.63
2018-05-25T07:59:22.518Z,4.20
2018-05-25T08:01:48.733Z,4.90
2018-05-25T08:04:14.954Z,3.50
2018-05-25T08:06:41.175Z,5.07
2018-05-25T08:09:07.432Z,3.40
2018-05-25T08:11:33.694Z,5.30
2018-05-25T08:13:59.903Z,4.77
2018-05-25T08:16:26.114Z,4.33
2018-05-25T08:18:53.292Z,4.20
2018-05-25T08:21:19.517Z,4.30
2018-05-25T08:23:45.931Z,4.97
2018-05-25T08:26:12.143Z,5.60
2018-05-25T08:28:38.339Z,4.63
2018-05-25T08:31:05.331Z,5.07
2018-05-25T08:33:31.561Z,4.80
2018-05-25T08:35:57.801Z,4.40
2018-05-25T08:38:24.016Z,3.50
2018-05-25T08:40:51.023Z,3.43
2018-05-25T08:43:17.267Z,3.77
2018-05-25T08:45:43.498Z,5.60
2018-05-25T08:48:09.766Z,4.90
2018-05-25T08:50:35.999Z,5.40
2018-05-25T08:53:02.210Z,5.60
2018-05-25T08:55:28.456Z,5.00
2018-05-25T08:57:54.666Z,4.83
2018-05-25T09:00:21.642Z,6.07
2018-05-25T09:02:47.854Z,5.07
2018-05-25T09:05:14.833Z,4.77
2018-05-25T09:07:41.072Z,4.33
2018-05-25T09:10:07.298Z,3.93
2018-05-25T09:12:34.265Z,4.80
2018-05-25T09:15:00.494Z,4.40
2018-05-25T09:17:26.724Z,4.10
2018-05-25T09:19:53.713Z,3.60
2018-05-25T09:22:19.944Z,3.60
2018-05-25T09:24:46.205Z,4.00
2018-05-25T09:27:12.436Z,3.60
2018-05-25T09:29:38.701Z,4.07
2018-05-25T09:32:04.966Z,2.83
2018-05-25T09:34:31.221Z,3.97
2018-05-25T09:36:58.218Z,5.20
2018-05-25T09:39:24.445Z,5.17
2018-05-25T09:41:50.672Z,5.97
2018-05-25T09:44:17.648Z,5.53
2018-05-25T09:46:43.866Z,5.53
2018-05-25T09:49:10.854Z,6.30
2018-05-25T09:51:37.069Z,5.07
2018-05-25T09:54:03.323Z,4.87
2018-05-25T09:56:29.551Z,5.00
2018-05-25T09:58:55.793Z,4.67
2018-05-25T10:01:22.064Z,4.60
2018-05-25T10:03:48.284Z,3.07
2018-05-25T10:06:14.517Z,3.80
2018-05-25T10:08:40.844Z,3.70
2018-05-25T10:11:07.042Z,2.90
2018-05-25T10:13:33.283Z,3.40
2018-05-25T10:15:59.523Z,4.60
2018-05-25T10:18:25.756Z,3.93
2018-05-25T10:20:52.071Z,4.80
2018-05-25T10:23:18.340Z,9.03
2018-05-25T10:25:44.587Z,7.13
2018-05-25T10:28:10.828Z,6.43
2018-05-25T10:30:37.111Z,7.13
2018-05-25T10:33:03.401Z,6.27
2018-05-25T10:35:29.688Z,6.70
2018-05-25T10:37:56.675Z,6.40
2018-05-25T10:40:22.920Z,5.37
2018-05-25T10:42:49.173Z,5.90
2018-05-25T10:45:15.405Z,7.57
2018-05-25T10:47:41.671Z,6.90
2018-05-25T10:50:07.909Z,6.40
2018-05-25T10:52:34.124Z,6.33
2018-05-25T10:55:00.394Z,5.03
2018-05-25T10:57:26.626Z,4.27
2018-05-25T10:59:53.029Z,4.83
2018-05-25T11:02:20.010Z,4.43
2018-05-25T11:04:46.245Z,4.50
2018-05-25T11:07:12.476Z,4.20
2018-05-25T11:09:38.677Z,3.70
2018-05-25T11:12:05.022Z,4.17
2018-05-25T11:14:31.224Z,5.00
2018-05-25T11:16:57.432Z,4.90
2018-05-25T11:19:24.657Z,5.40
2018-05-25T11:21:50.924Z,5.50
2018-05-25T11:24:17.907Z,5.00
2018-05-25T11:26:44.144Z,4.70
2018-05-25T11:29:10.382Z,5.20
2018-05-25T11:31:36.643Z,4.63
2018-05-25T11:34:02.918Z,5.43
2018-05-25T11:36:29.179Z,4.70
2018-05-25T11:38:56.150Z,5.27
2018-05-25T11:41:23.082Z,5.30
2018-05-25T11:43:49.330Z,4.20
2018-05-25T11:46:15.604Z,3.93
2018-05-25T11:48:42.563Z,3.47
2018-05-25T11:51:08.821Z,2.90
2018-05-25T11:53:35.038Z,3.00
2018-05-25T11:56:01.250Z,3.20
2018-05-25T11:58:27.493Z,3.97
2018-05-25T12:00:53.712Z,3.40
2018-05-25T12:03:19.951Z,3.20
2018-05-25T12:05:46.211Z,2.90
2018-05-25T12:08:12.433Z,2.97
2018-05-25T12:10:38.681Z,3.13
2018-05-25T12:13:04.958Z,2.40
2018-05-25T12:15:31.922Z,3.50
2018-05-25T12:17:58.133Z,2.93
2018-05-25T12:20:24.577Z,2.27
2018-05-25T12:22:50.797Z,2.10
2018-05-25T12:25:17.001Z,2.70
2018-05-25T12:27:43.405Z,2.50
2018-05-25T12:30:09.629Z,2.73
2018-05-25T12:32:35.843Z,2.90
2018-05-25T12:35:02.153Z,2.17
2018-05-25T12:37:29.127Z,2.80
2018-05-25T12:39:55.335Z,3.00
2018-05-25T12:42:22.323Z,2.50
2018-05-25T12:45:00.687Z,2.03
2018-05-25T12:47:26.957Z,1.70
2018-05-25T12:49:53.178Z,2.30
2018-05-25T12:52:19.435Z,2.20
2018-05-25T12:54:45.676Z,2.47
2018-05-25T12:57:11.901Z,2.60
2018-05-25T12:59:38.162Z,2.20
2018-05-25T13:02:05.180Z,1.70
2018-05-25T13:04:31.403Z,1.57
2018-05-25T13:06:57.636Z,1.60
2018-05-25T13:09:23.869Z,2.00
2018-05-25T13:11:50.082Z,2.47
2018-05-25T13:14:17.062Z,2.10
2018-05-25T13:16:43.667Z,1.60
2018-05-25T13:19:09.872Z,2.30
2018-05-25T13:21:36.238Z,2.33
2018-05-25T13:24:02.488Z,2.70
2018-05-25T13:26:28.706Z,4.33
2018-05-25T13:28:55.014Z,5.07
2018-05-25T13:31:21.302Z,6.03
2018-05-25T13:33:51.006Z,5.33
2018-05-25T13:36:17.266Z,4.20
2018-05-25T13:38:43.519Z,5.30
2018-05-25T13:41:09.968Z,4.17
2018-05-25T13:43:36.270Z,4.17
2018-05-25T13:46:02.535Z,3.63
2018-05-25T13:48:28.772Z,5.27
2018-05-25T13:50:55.005Z,4.60
2018-05-25T13:53:21.253Z,4.80
2018-05-25T13:55:47.493Z,5.20
2018-05-25T13:58:13.727Z,5.33
2018-05-25T14:00:39.982Z,4.60
2018-05-25T14:03:06.219Z,3.93
2018-05-25T14:05:32.448Z,3.43
2018-05-25T14:07:58.691Z,3.27
2018-05-25T14:10:24.920Z,3.70
2018-05-25T14:12:51.257Z,2.73
2018-05-25T14:15:17.640Z,2.90
2018-05-25T14:17:43.885Z,3.07
2018-05-25T14:20:10.097Z,2.90
2018-05-25T14:22:36.356Z,3.27
2018-05-25T14:25:02.640Z,2.50
2018-05-25T14:27:30.248Z,3.10
2018-05-25T14:29:56.626Z,2.40
2018-05-25T14:32:24.219Z,2.47
2018-05-25T14:34:50.752Z,2.60
2018-05-25T14:37:18.195Z,2.13
2018-05-25T14:39:44.523Z,2.00
2018-05-25T14:42:12.155Z,2.17
2018-05-25T14:44:38.549Z,1.90
2018-05-25T14:47:05.919Z,2.23
2018-05-25T14:49:33.649Z,2.20
2018-05-25T14:52:00.043Z,1.83
2018-05-25T14:54:28.032Z,2.07
2018-05-25T14:56:54.450Z,2.13
2018-05-25T14:59:21.525Z,1.90
2018-05-25T15:01:47.794Z,2.40
2018-05-25T15:04:15.217Z,2.00
2018-05-25T15:06:41.664Z,1.30
2018-05-25T15:09:07.917Z,1.60
2018-05-25T15:11:34.165Z,2.10
2018-05-25T15:14:00.439Z,1.10
2018-05-25T15:16:27.514Z,1.53
2018-05-25T15:18:54.488Z,1.27
2018-05-25T15:21:22.023Z,1.00
2018-05-25T15:23:49.210Z,1.70
2018-05-25T15:26:15.474Z,1.33
2018-05-25T15:28:41.695Z,2.00
2018-05-25T15:31:09.495Z,1.30
2018-05-25T15:33:35.738Z,1.47
2018-05-25T15:36:02.055Z,1.33
2018-05-25T15:38:29.518Z,1.37
2018-05-25T15:40:55.873Z,1.70
2018-05-25T15:43:22.087Z,1.50
2018-05-25T15:45:48.314Z,1.70
2018-05-25T15:48:14.562Z,1.30
2018-05-25T15:50:40.935Z,1.10
2018-05-25T15:53:07.894Z,1.20
2018-05-25T15:55:34.280Z,1.30
2018-05-25T15:58:00.544Z,1.30
2018-05-25T16:00:26.794Z,1.60
2018-05-25T16:02:54.438Z,1.77
2018-05-25T16:05:21.948Z,1.77
2018-05-25T16:07:48.355Z,1.60
2018-05-25T16:10:14.592Z,1.90
2018-05-25T16:12:41.914Z,1.50
2018-05-25T16:15:09.306Z,1.60
2018-05-25T16:17:35.625Z,2.00
2018-05-25T16:20:02.626Z,2.30
2018-05-25T16:22:28.950Z,1.67
2018-05-25T16:24:55.286Z,1.67
2018-05-25T16:27:21.535Z,2.30
2018-05-25T16:29:47.737Z,2.43
2018-05-25T16:32:14.711Z,1.97
2018-05-25T16:34:40.961Z,1.90
2018-05-25T16:37:07.187Z,2.53
2018-05-25T16:39:34.182Z,2.20
2018-05-25T16:42:00.410Z,1.97
2018-05-25T16:44:26.638Z,2.23
2018-05-25T16:46:52.871Z,2.10
2018-05-25T16:49:19.091Z,2.17
2018-05-25T16:51:46.089Z,2.33
2018-05-25T16:54:12.325Z,2.37
2018-05-25T16:56:38.571Z,2.43
2018-05-25T16:59:04.799Z,2.53
2018-05-25T17:01:31.013Z,2.60
2018-05-25T17:03:57.295Z,2.33
2018-05-25T17:06:23.569Z,2.00
2018-05-25T17:08:49.801Z,2.30
2018-05-25T17:11:16.070Z,2.20
2018-05-25T17:13:42.291Z,2.47
2018-05-25T17:16:08.701Z,1.77
2018-05-25T17:18:34.913Z,2.30
2018-05-25T17:21:01.858Z,1.93
2018-05-25T17:23:28.862Z,2.07
2018-05-25T17:25:55.095Z,2.00
2018-05-25T17:28:21.364Z,1.90
2018-05-25T17:30:47.682Z,2.00
2018-05-25T17:33:13.898Z,2.37
2018-05-25T17:35:40.169Z,1.87
2018-05-25T17:38:06.399Z,2.30
2018-05-25T17:40:32.628Z,2.10
2018-05-25T17:42:58.902Z,1.80
2018-05-25T17:45:25.150Z,2.00
2018-05-25T17:47:51.402Z,2.57
2018-05-25T17:50:17.624Z,2.60
2018-05-25T17:52:44.583Z,2.47
2018-05-25T17:55:10.822Z,1.90
2018-05-25T17:57:37.028Z,2.07
2018-05-25T18:00:03.344Z,2.10
2018-05-25T18:02:30.314Z,2.00
2018-05-25T18:04:57.286Z,2.67
2018-05-25T18:07:23.506Z,2.10
2018-05-25T18:09:49.754Z,2.00
2018-05-25T18:12:16.022Z,2.23
2018-05-25T18:14:42.239Z,1.80
2018-05-25T18:17:09.206Z,2.07
2018-05-25T18:19:35.479Z,2.80
2018-05-25T18:22:01.765Z,2.00
2018-05-25T18:24:28.038Z,1.60
2018-05-25T18:26:54.371Z,2.03
2018-05-25T18:29:20.585Z,2.20
2018-05-25T18:31:46.821Z,2.17
2018-05-25T18:34:13.038Z,2.50
2018-05-25T18:36:39.303Z,2.10
2018-05-25T18:39:05.554Z,2.37
2018-05-25T18:41:31.789Z,2.47
2018-05-25T18:43:58.787Z,2.63
2018-05-25T18:46:25.008Z,2.90
2018-05-25T18:48:51.257Z,2.87
2018-05-25T18:51:17.492Z,2.53
2018-05-25T18:53:43.756Z,2.70
2018-05-25T18:56:10.018Z,2.60
2018-05-25T18:58:36.231Z,2.67
2018-05-25T19:01:02.485Z,2.80
2018-05-25T19:03:28.871Z,3.03
2018-05-25T19:05:55.119Z,3.10
2018-05-25T19:08:22.122Z,2.87
2018-05-25T19:10:48.366Z,2.43
2018-05-25T19:13:14.611Z,2.60
2018-05-25T19:15:40.834Z,2.80
2018-05-25T19:18:07.144Z,2.93
2018-05-25T19:20:33.362Z,3.17
2018-05-25T19:22:59.660Z,3.27
2018-05-25T19:25:25.929Z,3.00
2018-05-25T19:27:52.383Z,2.93
2018-05-25T19:30:18.633Z,3.10
2018-05-25T19:32:44.903Z,2.70
2018-05-25T19:35:11.911Z,3.00
2018-05-25T19:37:38.134Z,2.80
2018-05-25T19:40:04.415Z,3.60
2018-05-25T19:42:30.655Z,3.00
2018-05-25T19:44:56.975Z,2.73
2018-05-25T19:47:23.266Z,2.73
2018-05-25T19:49:49.522Z,2.93
2018-05-25T19:52:15.864Z,3.23
2018-05-25T19:54:42.137Z,3.00
2018-05-25T19:57:08.365Z,2.90
2018-05-25T19:59:34.629Z,3.47
2018-05-25T20:02:00.935Z,3.20
2018-05-25T20:04:27.231Z,4.83
2018-05-25T20:06:53.483Z,3.60
2018-05-25T20:09:19.739Z,4.37
2018-05-25T20:11:46.733Z,4.27
2018-05-25T20:14:13.036Z,3.63
2018-05-25T20:16:40.075Z,4.20
2018-05-25T20:19:06.329Z,4.10
2018-05-25T20:21:33.295Z,4.03
2018-05-25T20:23:59.560Z,3.90
2018-05-25T20:26:25.811Z,4.60
2018-05-25T20:28:52.170Z,4.67
2018-05-25T20:31:18.652Z,3.80
2018-05-25T20:33:44.900Z,3.90
2018-05-25T20:36:11.889Z,3.60
2018-05-25T20:38:38.142Z,3.60
2018-05-25T20:41:04.382Z,3.37
2018-05-25T20:43:30.630Z,3.93
2018-05-25T20:45:56.911Z,3.70
2018-05-25T20:48:23.174Z,3.50
2018-05-25T20:50:49.410Z,3.60
2018-05-25T20:53:16.411Z,3.77
2018-05-25T20:55:42.634Z,4.60
2018-05-25T20:58:08.890Z,4.90
2018-05-25T21:00:35.140Z,4.20
2018-05-25T21:03:01.372Z,5.00
2018-05-25T21:05:27.628Z,4.90
2018-05-25T21:07:53.893Z,4.33
2018-05-25T21:10:20.126Z,4.87
2018-05-25T21:12:46.344Z,5.17
2018-05-25T21:15:12.591Z,4.70
2018-05-25T21:17:38.823Z,4.70
2018-05-25T21:20:05.066Z,4.30
2018-05-25T21:22:31.349Z,4.80
2018-05-25T21:24:58.314Z,5.10
2018-05-25T21:27:25.303Z,5.03
2018-05-25T21:29:51.702Z,5.90
2018-05-25T21:32:17.913Z,5.33
2018-05-25T21:34:44.220Z,5.57
2018-05-25T21:37:10.501Z,5.50
2018-05-25T21:39:36.760Z,5.87
2018-05-25T21:42:02.994Z,6.13
2018-05-25T21:44:29.240Z,5.70
2018-05-25T21:46:55.463Z,5.90
2018-05-25T21:49:21.672Z,6.27
2018-05-25T21:51:47.921Z,6.27
2018-05-25T21:54:14.149Z,6.30
2018-05-25T21:56:40.378Z,7.53
2018-05-25T21:59:06.637Z,7.47
2018-05-25T22:01:32.864Z,7.43
2018-05-25T22:03:59.112Z,4.93
2018-05-25T22:06:25.348Z,5.47
2018-05-25T22:08:51.612Z,5.97
2018-05-25T22:11:17.854Z,5.50
2018-05-25T22:13:44.128Z,5.20
2018-05-25T22:16:10.355Z,6.40
2018-05-25T22:18:36.593Z,5.53
2018-05-25T22:21:02.851Z,7.00
2018-05-25T22:23:29.012Z,7.30
2018-05-25T22:25:55.966Z,5.93
2018-05-25T22:28:22.954Z,6.87
2018-05-25T22:30:49.493Z,6.73
2018-05-25T22:33:15.714Z,7.40
2018-05-25T22:35:42.693Z,5.30
2018-05-25T22:38:08.903Z,5.57
2018-05-25T22:40:35.867Z,5.33
2018-05-25T22:43:14.947Z,6.70
2018-05-25T22:45:53.262Z,6.70
2018-05-25T22:48:31.740Z,7.37
2018-05-25T22:51:10.074Z,7.80
2018-05-25T22:53:42.771Z,7.53
2018-05-25T22:56:09.726Z,9.03
2018-05-25T22:58:36.698Z,9.50
2018-05-25T23:01:02.970Z,9.03
2018-05-25T23:03:29.182Z,8.30
2018-05-25T23:05:56.150Z,8.43
2018-05-25T23:08:22.395Z,7.97
2018-05-25T23:10:48.610Z,8.73
2018-05-25T23:13:15.576Z,7.60
2018-05-25T23:15:42.558Z,8.03
2018-05-25T23:18:08.778Z,8.07
2018-05-25T23:20:35.734Z,7.40
2018-05-25T23:23:02.719Z,7.70
2018-05-25T23:25:28.931Z,8.10
2018-05-25T23:27:55.878Z,8.47
2018-05-25T23:30:22.944Z,8.60
2018-05-25T23:32:49.917Z,9.03
2018-05-25T23:35:16.131Z,8.50
2018-05-25T23:37:43.115Z,8.43
2018-05-25T23:40:09.335Z,9.10
2018-05-25T23:42:36.279Z,7.50
2018-05-25T23:45:02.498Z,7.13
2018-05-25T23:47:28.707Z,6.20
2018-05-25T23:49:54.925Z,6.00
2018-05-25T23:52:21.942Z,6.37
2018-05-25T23:54:48.166Z,7.10
2018-05-25T23:57:14.378Z,5.93
2018-05-25T23:59:40.615Z,6.20
